sensor_id;sensor_type;location;lat;lon;timestamp;temperature;humidity
5828;DHT22;42583;50.240;8.444;2023-08-01T00:01:38;15.00;99.90
5828;DHT22;42583;50.240;8.444;2023-08-01T00:16:38;15.00;99.90
5828;DHT22;42583;50.240;8.444;2023-08-01T00:31:39;15.00;99.90
5828;DHT22;42583;50.240;8.444;2023-08-01T00:46:39;14.90;99.90
5828;DHT22;42583;50.240;8.444;2023-08-01T01:01:40;15.00;99.90
5828;DHT22;42583;50.240;8.444;2023-08-01T01:16:40;15.00;99.90
5828;DHT22;42583;50.240;8.444;2023-08-01T01:31:41;15.00;99.90
5828;DHT22;42583;50.240;8.444;2023-08-01T01:46:41;15.10;99.90
5828;DHT22;42583;50.240;8.444;2023-08-01T02:01:42;15.20;99.90
5828;DHT22;42583;50.240;8.444;2023-08-01T02:16:42;15.20;99.90
5828;DHT22;42583;50.240;8.444;2023-08-01T02:31:43;15.20;99.90
5828;DHT22;42583;50.240;8.444;2023-08-01T02:46:43;15.30;99.90
5828;DHT22;42583;50.240;8.444;2023-08-01T03:01:44;15.30;99.90
5828;DHT22;42583;50.240;8.444;2023-08-01T03:16:44;15.30;99.90
5828;DHT22;42583;50.240;8.444;2023-08-01T03:31:45;15.20;99.90
5828;DHT22;42583;50.240;8.444;2023-08-01T03:46:45;15.20;99.90
5828;DHT22;42583;50.240;8.444;2023-08-01T04:01:47;15.30;99.90
5828;DHT22;42583;50.240;8.444;2023-08-01T04:16:48;15.30;99.90
5828;DHT22;42583;50.240;8.444;2023-08-01T04:31:48;15.40;99.90
5828;DHT22;42583;50.240;8.444;2023-08-01T04:46:49;15.40;99.90
5828;DHT22;42583;50.240;8.444;2023-08-01T05:01:49;15.40;99.90
5828;DHT22;42583;50.240;8.444;2023-08-01T05:16:50;15.50;99.90
5828;DHT22;42583;50.240;8.444;2023-08-01T05:31:50;15.40;99.90
5828;DHT22;42583;50.240;8.444;2023-08-01T05:46:51;15.40;99.90
5828;DHT22;42583;50.240;8.444;2023-08-01T06:01:51;15.40;99.90
5828;DHT22;42583;50.240;8.444;2023-08-01T06:16:52;15.20;99.90
5828;DHT22;42583;50.240;8.444;2023-08-01T06:31:52;14.80;99.90
5828;DHT22;42583;50.240;8.444;2023-08-01T06:46:53;14.70;99.90
5828;DHT22;42583;50.240;8.444;2023-08-01T07:01:56;14.60;99.90
5828;DHT22;42583;50.240;8.444;2023-08-01T07:16:57;14.60;99.90
5828;DHT22;42583;50.240;8.444;2023-08-01T07:31:58;14.70;99.90
5828;DHT22;42583;50.240;8.444;2023-08-01T07:46:58;14.80;99.90
5828;DHT22;42583;50.240;8.444;2023-08-01T08:01:59;14.80;99.90
5828;DHT22;42583;50.240;8.444;2023-08-01T08:16:59;15.40;99.90
5828;DHT22;42583;50.240;8.444;2023-08-01T08:31:59;16.20;99.90
5828;DHT22;42583;50.240;8.444;2023-08-01T08:47:02;17.00;99.90
5828;DHT22;42583;50.240;8.444;2023-08-01T09:02:02;17.20;99.90
5828;DHT22;42583;50.240;8.444;2023-08-01T09:17:10;17.90;99.90
5828;DHT22;42583;50.240;8.444;2023-08-01T09:32:11;18.10;99.90
5828;DHT22;42583;50.240;8.444;2023-08-01T09:47:12;17.80;99.90
5828;DHT22;42583;50.240;8.444;2023-08-01T10:02:14;18.10;99.90
5828;DHT22;42583;50.240;8.444;2023-08-01T10:17:15;18.00;99.90
5828;DHT22;42583;50.240;8.444;2023-08-01T10:32:16;18.40;99.90
5828;DHT22;42583;50.240;8.444;2023-08-01T10:47:27;18.80;99.90
5828;DHT22;42583;50.240;8.444;2023-08-01T11:02:32;17.70;99.90
5828;DHT22;42583;50.240;8.444;2023-08-01T11:17:32;19.10;99.90
5828;DHT22;42583;50.240;8.444;2023-08-01T11:32:33;19.50;99.90
5828;DHT22;42583;50.240;8.444;2023-08-01T11:47:35;20.10;99.90
5828;DHT22;42583;50.240;8.444;2023-08-01T12:02:35;19.30;99.90
5828;DHT22;42583;50.240;8.444;2023-08-01T12:17:36;18.30;99.90
5828;DHT22;42583;50.240;8.444;2023-08-01T12:32:36;18.50;99.90
5828;DHT22;42583;50.240;8.444;2023-08-01T12:47:37;19.20;99.90
5828;DHT22;42583;50.240;8.444;2023-08-01T13:02:38;20.10;98.80
5828;DHT22;42583;50.240;8.444;2023-08-01T13:17:39;20.60;99.90
5828;DHT22;42583;50.240;8.444;2023-08-01T13:32:40;21.50;94.50
5828;DHT22;42583;50.240;8.444;2023-08-01T13:47:40;19.80;96.00
5828;DHT22;42583;50.240;8.444;2023-08-01T14:02:41;19.00;99.90
5828;DHT22;42583;50.240;8.444;2023-08-01T14:17:42;20.30;99.90
5828;DHT22;42583;50.240;8.444;2023-08-01T14:32:42;18.40;99.90
5828;DHT22;42583;50.240;8.444;2023-08-01T14:47:43;17.50;99.90
5828;DHT22;42583;50.240;8.444;2023-08-01T15:02:43;17.50;99.90
5828;DHT22;42583;50.240;8.444;2023-08-01T15:17:44;18.00;99.90
5828;DHT22;42583;50.240;8.444;2023-08-01T15:32:44;18.80;99.90
5828;DHT22;42583;50.240;8.444;2023-08-01T15:47:45;18.10;99.90
5828;DHT22;42583;50.240;8.444;2023-08-01T16:02:47;17.10;99.90
5828;DHT22;42583;50.240;8.444;2023-08-01T16:17:47;16.70;99.90
5828;DHT22;42583;50.240;8.444;2023-08-01T16:32:49;16.90;99.90
5828;DHT22;42583;50.240;8.444;2023-08-01T16:47:50;16.50;99.90
5828;DHT22;42583;50.240;8.444;2023-08-01T17:02:51;16.40;99.90
5828;DHT22;42583;50.240;8.444;2023-08-01T17:17:51;16.70;99.90
5828;DHT22;42583;50.240;8.444;2023-08-01T17:32:52;16.90;99.90
5828;DHT22;42583;50.240;8.444;2023-08-01T17:47:52;16.50;99.90
5828;DHT22;42583;50.240;8.444;2023-08-01T18:02:53;16.30;99.90
5828;DHT22;42583;50.240;8.444;2023-08-01T18:17:54;16.10;99.90
5828;DHT22;42583;50.240;8.444;2023-08-01T18:32:54;16.00;99.90
5828;DHT22;42583;50.240;8.444;2023-08-01T18:47:55;15.80;99.90
5828;DHT22;42583;50.240;8.444;2023-08-01T19:02:56;15.50;99.90
5828;DHT22;42583;50.240;8.444;2023-08-01T19:17:57;15.20;99.90
5828;DHT22;42583;50.240;8.444;2023-08-01T19:32:58;15.00;99.90
5828;DHT22;42583;50.240;8.444;2023-08-01T19:47:58;14.70;99.90
5828;DHT22;42583;50.240;8.444;2023-08-01T20:02:59;14.50;99.90
5828;DHT22;42583;50.240;8.444;2023-08-01T20:17:59;14.40;99.90
5828;DHT22;42583;50.240;8.444;2023-08-01T20:33:00;14.50;99.90
5828;DHT22;42583;50.240;8.444;2023-08-01T20:48:00;14.50;99.90
5828;DHT22;42583;50.240;8.444;2023-08-01T21:03:01;14.50;99.90
5828;DHT22;42583;50.240;8.444;2023-08-01T21:18:02;14.60;99.90
5828;DHT22;42583;50.240;8.444;2023-08-01T21:33:02;14.60;99.90
5828;DHT22;42583;50.240;8.444;2023-08-01T21:48:03;14.70;99.90
5828;DHT22;42583;50.240;8.444;2023-08-01T22:03:03;14.50;99.90
5828;DHT22;42583;50.240;8.444;2023-08-01T22:18:04;14.50;99.90
5828;DHT22;42583;50.240;8.444;2023-08-01T22:33:04;14.50;99.90
5828;DHT22;42583;50.240;8.444;2023-08-01T22:48:05;14.60;99.90
5828;DHT22;42583;50.240;8.444;2023-08-01T23:03:05;14.70;99.90
5828;DHT22;42583;50.240;8.444;2023-08-01T23:18:06;14.70;99.90
5828;DHT22;42583;50.240;8.444;2023-08-01T23:33:07;14.40;99.90
5828;DHT22;42583;50.240;8.444;2023-08-01T23:48:07;14.20;99.90
